createdAt,value
2023-02-04T00:02:04.290Z,5.28
2023-02-04T00:04:30.962Z,1.77
2023-02-04T00:06:57.606Z,1.88
2023-02-04T00:09:24.231Z,2.33
2023-02-04T00:11:50.894Z,1.92
2023-02-04T00:14:17.521Z,2.13
2023-02-04T00:16:44.184Z,3.58
2023-02-04T00:19:10.896Z,7.78
2023-02-04T00:24:04.356Z,4.88
2023-02-04T00:26:31.070Z,2.30
2023-02-04T00:28:57.695Z,2.65
2023-02-04T00:31:25.381Z,2.78
2023-02-04T00:33:52.197Z,3.60
2023-02-04T00:38:45.675Z,3.00
2023-02-04T00:41:13.470Z,3.08
2023-02-04T00:46:06.845Z,3.53
2023-02-04T00:51:02.571Z,6.18
2023-02-04T00:53:29.275Z,2.10
2023-02-04T00:55:57.427Z,1.50
2023-02-04T00:58:24.076Z,3.88
2023-02-04T01:00:50.859Z,1.80
2023-02-04T01:03:17.744Z,1.88
2023-02-04T01:05:44.385Z,2.15
2023-02-04T01:08:11.520Z,2.03
2023-02-04T01:10:38.246Z,3.65
2023-02-04T01:13:05.112Z,2.15
2023-02-04T01:17:58.348Z,3.15
2023-02-04T01:20:24.992Z,1.75
2023-02-04T01:22:51.661Z,1.70
2023-02-04T01:25:19.255Z,3.15
2023-02-04T01:27:46.198Z,0.88
2023-02-04T01:30:15.011Z,1.88
2023-02-04T01:32:41.978Z,1.98
2023-02-04T01:35:08.823Z,1.73
2023-02-04T01:40:02.204Z,1.98
2023-02-04T01:42:28.918Z,1.63
2023-02-04T01:47:23.550Z,1.40
2023-02-04T01:49:53.664Z,1.92
2023-02-04T01:52:21.273Z,2.70
2023-02-04T01:54:47.963Z,1.77
2023-02-04T01:59:44.763Z,1.42
2023-02-04T02:02:39.004Z,5.88
2023-02-04T02:05:06.750Z,1.58
2023-02-04T02:07:33.521Z,5.40
2023-02-04T02:12:26.886Z,1.75
2023-02-04T02:14:53.833Z,1.50
2023-02-04T02:17:20.515Z,1.40
2023-02-04T02:19:47.194Z,2.15
2023-02-04T02:22:20.336Z,2.22
2023-02-04T02:24:47.081Z,1.77
2023-02-04T02:29:42.225Z,1.30
2023-02-04T02:32:11.854Z,1.35
2023-02-04T02:34:39.737Z,1.52
2023-02-04T02:37:09.008Z,3.13
2023-02-04T02:39:38.341Z,1.55
2023-02-04T02:42:05.155Z,2.90
2023-02-04T02:46:59.730Z,1.60
2023-02-04T02:49:30.319Z,1.27
2023-02-04T02:51:57.031Z,1.48
2023-02-04T02:54:31.461Z,3.60
2023-02-04T02:57:01.873Z,1.38
2023-02-04T02:59:28.633Z,1.00
2023-02-04T03:04:28.283Z,8.10
2023-02-04T03:06:56.128Z,4.35
2023-02-04T03:09:25.238Z,2.50
2023-02-04T03:11:52.159Z,1.35
2023-02-04T03:14:19.602Z,1.20
2023-02-04T03:16:47.803Z,1.25
2023-02-04T03:19:14.812Z,1.20
2023-02-04T03:21:42.453Z,1.20
2023-02-04T03:24:09.971Z,2.65
2023-02-04T03:26:37.812Z,3.38
2023-02-04T03:29:09.226Z,1.15
2023-02-04T03:31:37.696Z,1.17
2023-02-04T03:34:05.063Z,1.27
2023-02-04T03:36:31.700Z,0.80
2023-02-04T03:38:58.920Z,1.92
2023-02-04T03:41:25.562Z,1.10
2023-02-04T03:46:18.866Z,0.80
2023-02-04T03:51:12.415Z,0.90
2023-02-04T03:53:39.058Z,2.75
2023-02-04T03:56:05.907Z,1.27
2023-02-04T04:00:59.371Z,1.42
2023-02-04T04:03:26.034Z,0.70
2023-02-04T04:05:52.694Z,1.05
2023-02-04T04:08:19.315Z,0.73
2023-02-04T04:10:45.970Z,0.90
2023-02-04T04:13:12.583Z,1.60
2023-02-04T04:15:39.344Z,1.65
2023-02-04T04:18:06.068Z,0.70
2023-02-04T04:20:33.037Z,1.58
2023-02-04T04:22:59.968Z,1.52
2023-02-04T04:27:53.349Z,3.35
2023-02-04T04:30:20.099Z,0.90
2023-02-04T04:35:13.494Z,0.63
2023-02-04T04:37:40.147Z,1.55
2023-02-04T04:40:07.081Z,1.08
2023-02-04T04:42:33.754Z,1.45
2023-02-04T04:45:00.471Z,1.10
2023-02-04T04:49:53.683Z,0.90
2023-02-04T04:52:20.300Z,1.10
2023-02-04T04:54:47.029Z,1.45
2023-02-04T04:57:13.753Z,0.93
2023-02-04T05:02:07.039Z,1.45
2023-02-04T05:04:33.805Z,1.10
2023-02-04T05:07:00.507Z,2.17
2023-02-04T05:09:27.119Z,1.20
2023-02-04T05:11:53.832Z,0.90
2023-02-04T05:16:47.019Z,5.05
2023-02-04T05:19:13.679Z,4.47
2023-02-04T05:24:06.947Z,1.25
2023-02-04T05:29:00.432Z,0.90
2023-02-04T05:31:27.968Z,1.17
2023-02-04T05:33:54.942Z,2.25
2023-02-04T05:36:21.961Z,1.83
2023-02-04T05:38:48.861Z,1.42
2023-02-04T05:41:15.535Z,1.80
2023-02-04T05:43:43.093Z,3.17
2023-02-04T05:46:10.100Z,3.08
2023-02-04T05:48:36.833Z,2.55
2023-02-04T05:53:30.129Z,1.75
2023-02-04T05:55:56.811Z,2.03
2023-02-04T05:58:23.530Z,1.13
2023-02-04T06:03:19.398Z,1.67
2023-02-04T06:05:46.151Z,1.45
2023-02-04T06:08:15.702Z,0.90
2023-02-04T06:10:42.400Z,1.30
2023-02-04T06:13:09.038Z,1.00
2023-02-04T06:15:35.868Z,1.17
2023-02-04T06:20:29.168Z,2.78
2023-02-04T06:25:23.058Z,2.30
2023-02-04T06:27:49.975Z,2.22
2023-02-04T06:30:17.281Z,3.42
2023-02-04T06:32:44.199Z,1.95
2023-02-04T06:35:12.901Z,1.95
2023-02-04T06:37:39.635Z,4.72
2023-02-04T06:42:33.246Z,6.45
2023-02-04T06:44:59.956Z,2.58
2023-02-04T06:49:53.306Z,1.70
2023-02-04T06:52:19.939Z,4.55
2023-02-04T06:54:46.590Z,3.83
2023-02-04T06:59:41.315Z,5.72
2023-02-04T07:02:08.155Z,1.90
2023-02-04T07:07:02.180Z,5.07
2023-02-04T07:09:28.880Z,1.92
2023-02-04T07:14:22.120Z,1.63
2023-02-04T07:16:48.752Z,4.20
2023-02-04T07:19:15.420Z,2.15
2023-02-04T07:24:08.702Z,3.30
2023-02-04T07:26:35.458Z,5.38
2023-02-04T07:31:28.754Z,3.90
2023-02-04T07:36:22.201Z,3.58
2023-02-04T07:41:15.481Z,6.03
2023-02-04T07:43:42.396Z,4.55
2023-02-04T07:48:35.768Z,4.00
2023-02-04T07:51:02.684Z,6.53
2023-02-04T07:53:29.378Z,4.05
2023-02-04T07:58:23.085Z,3.75
2023-02-04T08:00:49.850Z,5.03
2023-02-04T08:05:43.133Z,3.33
2023-02-04T08:08:09.785Z,4.13
2023-02-04T08:10:36.442Z,4.00
2023-02-04T08:13:03.431Z,4.75
2023-02-04T08:15:30.089Z,3.63
2023-02-04T08:17:56.709Z,4.05
2023-02-04T08:20:23.375Z,4.85
2023-02-04T08:22:50.055Z,5.07
2023-02-04T08:27:43.361Z,3.72
2023-02-04T08:32:37.185Z,5.30
2023-02-04T08:35:06.177Z,3.78
2023-02-04T08:37:33.092Z,4.30
2023-02-04T08:39:59.762Z,3.85
2023-02-04T08:42:26.485Z,3.15
2023-02-04T08:47:19.745Z,3.35
2023-02-04T08:49:46.418Z,3.53
2023-02-04T08:52:13.069Z,3.05
2023-02-04T08:54:39.767Z,2.40
2023-02-04T08:57:06.483Z,2.47
2023-02-04T09:01:59.868Z,3.58
2023-02-04T09:04:28.331Z,2.13
2023-02-04T09:06:55.436Z,2.30
2023-02-04T09:09:23.285Z,2.00
2023-02-04T09:11:50.567Z,3.75
2023-02-04T09:14:17.238Z,2.67
2023-02-04T09:16:43.973Z,2.72
2023-02-04T09:21:39.342Z,3.15
2023-02-04T09:24:06.005Z,2.13
2023-02-04T09:26:32.691Z,4.45
2023-02-04T09:28:59.399Z,4.53
2023-02-04T09:33:52.787Z,2.25
2023-02-04T09:36:20.479Z,3.45
2023-02-04T09:38:47.163Z,3.42
2023-02-04T09:41:14.963Z,2.38
2023-02-04T09:43:44.916Z,3.20
2023-02-04T09:46:23.571Z,2.92
2023-02-04T09:48:50.794Z,2.63
2023-02-04T09:51:22.056Z,2.47
2023-02-04T09:53:49.947Z,2.40
2023-02-04T09:56:17.173Z,3.35
2023-02-04T09:58:44.093Z,2.47
2023-02-04T10:01:15.540Z,2.90
2023-02-04T10:03:47.812Z,3.20
2023-02-04T10:06:20.240Z,2.55
2023-02-04T10:08:48.944Z,1.65
2023-02-04T10:11:17.618Z,2.15
2023-02-04T10:13:50.285Z,2.55
2023-02-04T10:16:37.793Z,1.27
2023-02-04T10:19:10.875Z,1.15
2023-02-04T10:21:37.714Z,1.10
2023-02-04T10:26:34.137Z,1.10
2023-02-04T10:29:03.295Z,4.35
2023-02-04T10:31:32.855Z,2.92
2023-02-04T10:34:18.577Z,3.72
2023-02-04T10:36:51.590Z,5.43
2023-02-04T10:39:23.470Z,5.07
2023-02-04T10:41:52.747Z,5.30
2023-02-04T10:44:30.768Z,5.30
2023-02-04T10:47:03.466Z,6.55
2023-02-04T10:49:30.321Z,7.55
2023-02-04T10:51:57.904Z,3.58
2023-02-04T10:54:38.290Z,6.97
2023-02-04T10:57:26.910Z,3.65
2023-02-04T10:59:56.567Z,4.70
2023-02-04T11:02:38.402Z,3.72
2023-02-04T11:05:18.418Z,4.55
2023-02-04T11:07:47.335Z,4.75
2023-02-04T11:10:25.394Z,4.28
2023-02-04T11:12:54.759Z,4.35
2023-02-04T11:15:45.027Z,6.32
2023-02-04T11:18:26.356Z,7.78
2023-02-04T11:20:57.460Z,7.07
2023-02-04T11:23:26.936Z,8.30
2023-02-04T11:26:10.207Z,8.25
2023-02-04T11:28:48.178Z,13.88
2023-02-04T11:31:21.324Z,13.05
2023-02-04T11:33:49.872Z,16.45
2023-02-04T11:36:17.247Z,10.10
2023-02-04T11:38:46.904Z,11.75
2023-02-04T11:41:39.863Z,11.15
2023-02-04T11:44:09.303Z,12.10
2023-02-04T11:46:36.128Z,10.82
2023-02-04T11:49:03.065Z,11.15
2023-02-04T11:51:34.179Z,14.13
2023-02-04T11:54:00.926Z,13.30
2023-02-04T11:56:30.548Z,8.63
2023-02-04T11:58:58.702Z,12.43
2023-02-04T12:01:31.181Z,13.88
2023-02-04T12:04:00.941Z,12.82
2023-02-04T12:06:30.487Z,16.30
2023-02-04T12:09:26.015Z,11.77
2023-02-04T12:12:01.411Z,9.57
2023-02-04T12:14:38.771Z,9.93
2023-02-04T12:19:46.668Z,9.85
2023-02-04T12:22:14.704Z,16.75
2023-02-04T12:24:41.619Z,20.73
2023-02-04T12:27:08.267Z,13.20
2023-02-04T12:29:34.935Z,11.88
2023-02-04T12:32:01.710Z,14.68
2023-02-04T12:36:55.508Z,11.33
2023-02-04T12:39:22.156Z,11.23
2023-02-04T12:41:48.826Z,10.18
2023-02-04T12:44:17.279Z,13.25
2023-02-04T12:46:44.027Z,12.18
2023-02-04T12:51:37.324Z,9.60
2023-02-04T12:54:04.127Z,17.30
2023-02-04T12:58:57.619Z,7.68
2023-02-04T13:01:24.289Z,15.38
2023-02-04T13:03:51.010Z,7.32
2023-02-04T13:06:17.703Z,6.22
2023-02-04T13:11:10.911Z,11.63
2023-02-04T13:13:37.636Z,14.88
2023-02-04T13:16:05.753Z,14.50
2023-02-04T13:18:33.913Z,5.15
2023-02-04T13:21:00.543Z,12.00
2023-02-04T13:23:27.203Z,7.68
2023-02-04T13:25:53.865Z,10.63
2023-02-04T13:28:20.641Z,7.82
2023-02-04T13:33:14.009Z,13.00
2023-02-04T13:35:40.840Z,13.93
2023-02-04T13:40:34.142Z,7.22
2023-02-04T13:43:00.797Z,10.13
2023-02-04T13:45:27.452Z,10.20
2023-02-04T13:47:54.119Z,8.18
2023-02-04T13:50:20.791Z,19.33
2023-02-04T13:52:47.384Z,7.82
2023-02-04T13:55:14.908Z,9.52
2023-02-04T13:57:41.605Z,11.20
2023-02-04T14:00:09.717Z,13.77
2023-02-04T14:02:39.371Z,13.68
2023-02-04T14:05:06.350Z,12.68
2023-02-04T14:07:33.991Z,14.88
2023-02-04T14:10:00.663Z,8.38
2023-02-04T14:12:27.355Z,9.45
2023-02-04T14:14:54.028Z,9.65
2023-02-04T14:17:20.668Z,14.27
2023-02-04T14:19:47.449Z,8.32
2023-02-04T14:24:42.552Z,7.78
2023-02-04T14:27:10.395Z,12.63
2023-02-04T14:29:37.133Z,14.80
2023-02-04T14:32:04.938Z,8.70
2023-02-04T14:34:31.632Z,13.98
2023-02-04T14:36:58.306Z,12.70
2023-02-04T14:41:51.504Z,18.05
2023-02-04T14:44:20.674Z,19.40
2023-02-04T14:46:50.779Z,16.58
2023-02-04T14:49:17.698Z,14.75
2023-02-04T14:54:11.044Z,15.98
2023-02-04T14:56:38.799Z,10.57
2023-02-04T14:59:05.750Z,11.35
2023-02-04T15:01:32.403Z,11.95
2023-02-04T15:03:59.291Z,15.98
2023-02-04T15:06:26.249Z,13.65
2023-02-04T15:08:52.979Z,10.82
2023-02-04T15:11:19.764Z,13.95
2023-02-04T15:16:14.704Z,21.77
2023-02-04T15:18:42.386Z,17.30
2023-02-04T15:21:09.630Z,16.40
2023-02-04T15:23:36.317Z,18.33
2023-02-04T15:26:03.371Z,16.77
2023-02-04T15:28:30.972Z,18.58
2023-02-04T15:30:58.021Z,10.70
2023-02-04T15:33:24.762Z,19.17
2023-02-04T15:35:51.402Z,16.80
2023-02-04T15:38:18.083Z,14.70
2023-02-04T15:40:44.743Z,14.85
2023-02-04T15:43:11.495Z,16.02
2023-02-04T15:48:08.514Z,15.07
2023-02-04T15:50:35.568Z,11.50
2023-02-04T15:53:02.376Z,10.38
2023-02-04T15:57:56.047Z,11.60
2023-02-04T16:02:49.976Z,14.55
2023-02-04T16:05:16.866Z,11.70
2023-02-04T16:07:43.608Z,8.15
2023-02-04T16:10:10.803Z,14.27
2023-02-04T16:12:37.502Z,16.15
2023-02-04T16:15:04.347Z,12.95
2023-02-04T16:17:31.011Z,15.10
2023-02-04T16:19:58.034Z,18.65
2023-02-04T16:22:24.762Z,16.63
2023-02-04T16:29:46.755Z,46.10
2023-02-04T16:32:13.777Z,41.75
2023-02-04T16:34:42.324Z,21.58
2023-02-04T16:39:38.828Z,13.27
2023-02-04T16:42:11.255Z,20.60
2023-02-04T16:44:38.645Z,21.05
2023-02-04T16:47:06.589Z,24.17
2023-02-04T16:49:33.735Z,19.33
2023-02-04T16:52:04.208Z,19.30
2023-02-04T16:54:34.559Z,22.13
2023-02-04T16:57:01.483Z,20.55
2023-02-04T16:59:28.651Z,21.10
2023-02-04T17:01:57.574Z,17.52
2023-02-04T17:04:25.060Z,18.23
2023-02-04T17:06:52.176Z,14.52
2023-02-04T17:09:19.326Z,22.48
2023-02-04T17:11:46.052Z,24.92
2023-02-04T17:14:17.135Z,16.40
2023-02-04T17:16:45.089Z,14.63
2023-02-04T17:19:12.855Z,18.77
2023-02-04T17:21:39.615Z,33.42
2023-02-04T17:26:38.132Z,28.63
2023-02-04T17:29:17.047Z,29.13
2023-02-04T17:31:44.271Z,22.92
2023-02-04T17:34:11.353Z,24.33
2023-02-04T17:36:38.775Z,21.50
2023-02-04T17:39:07.412Z,12.15
2023-02-04T17:41:34.485Z,23.48
2023-02-04T17:44:03.125Z,14.77
2023-02-04T17:46:29.921Z,31.80
2023-02-04T17:48:58.553Z,20.35
2023-02-04T17:51:25.409Z,27.58
2023-02-04T17:56:18.940Z,17.75
2023-02-04T17:58:45.895Z,21.52
2023-02-04T18:01:18.715Z,18.85
2023-02-04T18:03:46.321Z,24.52
2023-02-04T18:06:27.020Z,21.77
2023-02-04T18:09:01.124Z,19.33
2023-02-04T18:11:32.947Z,24.63
2023-02-04T18:14:04.999Z,20.88
2023-02-04T18:16:34.494Z,20.05
2023-02-04T18:19:19.813Z,31.70
2023-02-04T18:21:47.787Z,20.95
2023-02-04T18:24:19.455Z,23.48
2023-02-04T18:26:51.960Z,16.92
2023-02-04T18:29:40.451Z,15.05
2023-02-04T18:32:28.048Z,17.48
2023-02-04T18:34:57.275Z,23.17
2023-02-04T18:37:46.127Z,11.55
2023-02-04T18:40:27.726Z,21.38
2023-02-04T18:43:04.693Z,16.90
2023-02-04T18:45:32.978Z,20.27
2023-02-04T18:48:21.531Z,19.92
2023-02-04T18:50:54.141Z,16.13
2023-02-04T18:53:28.516Z,11.13
2023-02-04T18:55:58.170Z,16.65
2023-02-04T18:58:45.175Z,21.75
2023-02-04T19:01:12.722Z,17.50
2023-02-04T19:03:51.462Z,18.98
2023-02-04T19:06:27.851Z,19.58
2023-02-04T19:09:06.469Z,24.10
2023-02-04T19:11:43.790Z,21.63
2023-02-04T19:16:45.068Z,18.58
2023-02-04T19:19:48.623Z,26.05
2023-02-04T19:22:43.628Z,16.52
2023-02-04T19:25:35.724Z,19.38
2023-02-04T19:28:24.623Z,20.38
2023-02-04T19:30:59.244Z,21.13
2023-02-04T19:33:37.827Z,14.40
2023-02-04T19:36:36.791Z,18.75
2023-02-04T19:39:21.531Z,20.70
2023-02-04T19:41:52.950Z,22.02
2023-02-04T19:44:44.848Z,20.95
2023-02-04T19:47:25.109Z,21.95
2023-02-04T19:50:15.758Z,17.63
2023-02-04T19:52:55.657Z,24.17
2023-02-04T19:55:30.760Z,20.20
2023-02-04T19:58:09.238Z,19.80
2023-02-04T20:00:38.644Z,17.35
2023-02-04T20:03:46.303Z,15.57
2023-02-04T20:06:37.017Z,22.75
2023-02-04T20:09:16.931Z,24.05
2023-02-04T20:11:57.298Z,27.77
2023-02-04T20:14:56.530Z,21.05
2023-02-04T20:17:36.556Z,27.83
2023-02-04T20:20:29.309Z,20.02
2023-02-04T20:23:14.540Z,20.35
2023-02-04T20:25:42.598Z,21.20
2023-02-04T20:28:35.096Z,17.60
2023-02-04T20:31:02.592Z,25.00
2023-02-04T20:33:34.684Z,17.65
2023-02-04T20:36:26.352Z,18.90
2023-02-04T20:39:16.986Z,20.40
2023-02-04T20:41:43.647Z,21.85
2023-02-04T20:44:26.172Z,23.45
2023-02-04T20:47:11.047Z,16.30
2023-02-04T20:49:41.573Z,24.80
2023-02-04T20:52:40.225Z,20.55
2023-02-04T20:55:48.229Z,24.35
2023-02-04T20:58:18.862Z,23.05
2023-02-04T21:00:48.725Z,21.33
2023-02-04T21:03:35.940Z,23.73
2023-02-04T21:06:13.272Z,23.27
2023-02-04T21:11:11.253Z,17.17
2023-02-04T21:16:06.133Z,24.55
2023-02-04T21:18:35.772Z,25.00
2023-02-04T21:21:07.816Z,34.13
2023-02-04T21:23:35.882Z,21.67
2023-02-04T21:26:02.959Z,23.25
2023-02-04T21:28:31.594Z,25.70
2023-02-04T21:30:59.533Z,25.98
2023-02-04T21:33:26.512Z,19.75
2023-02-04T21:35:53.175Z,25.38
2023-02-04T21:38:19.961Z,25.83
2023-02-04T21:40:46.703Z,26.23
2023-02-04T21:45:40.018Z,20.23
2023-02-04T21:48:07.913Z,26.85
2023-02-04T21:50:36.312Z,19.33
2023-02-04T21:53:03.000Z,16.92
2023-02-04T21:57:56.327Z,21.25
2023-02-04T22:02:53.444Z,18.98
2023-02-04T22:05:21.462Z,16.00
2023-02-04T22:07:49.049Z,18.00
2023-02-04T22:10:20.807Z,20.25
2023-02-04T22:12:47.896Z,18.42
2023-02-04T22:15:17.560Z,19.40
2023-02-04T22:17:45.158Z,34.90
2023-02-04T22:20:14.929Z,28.00
2023-02-04T22:22:45.435Z,33.65
2023-02-04T22:25:14.034Z,29.10
2023-02-04T22:27:40.726Z,29.88
2023-02-04T22:30:09.035Z,31.83
2023-02-04T22:32:36.037Z,32.45
2023-02-04T22:35:02.779Z,21.73
2023-02-04T22:39:56.116Z,31.40
2023-02-04T22:44:49.393Z,28.88
2023-02-04T22:49:42.754Z,25.67
2023-02-04T22:52:09.452Z,22.88
2023-02-04T22:57:04.360Z,27.50
2023-02-04T23:01:57.929Z,33.20
2023-02-04T23:04:24.625Z,32.80
2023-02-04T23:09:18.700Z,24.52
2023-02-04T23:11:45.436Z,20.50
2023-02-04T23:16:39.729Z,21.77
2023-02-04T23:19:06.551Z,32.50
2023-02-04T23:21:33.468Z,24.55
2023-02-04T23:24:00.268Z,19.83
2023-02-04T23:26:27.146Z,25.13
2023-02-04T23:28:53.761Z,24.85
2023-02-04T23:31:20.485Z,26.02
2023-02-04T23:36:13.898Z,24.52
2023-02-04T23:38:40.555Z,21.65
2023-02-04T23:43:33.869Z,28.50
2023-02-04T23:48:27.377Z,22.67
2023-02-04T23:53:24.021Z,27.65
2023-02-04T23:55:51.417Z,24.88
2023-02-04T23:58:18.624Z,25.88
